KBIF/BIF METAR and TAF weather

Enter ICAO airport designator
Station Type Date Time Source
KBIF METAR 2020/11/28 19:58 UTC NOAA

KBIF 281958Z AUTO 00000KT 10SM CLR 12/M02 A3018 RMK AO2 SLP204 T01171021 $


Station Type Date Time Source
KBIF Decoded METAR 2020/11/28 19:58 UTC NOAA

Biggs Army Air Field / Ft. Bliss, TX, United States (KBIF) 31-51N 106-23W
Nov 28, 2020 - 02:58 PM EST / 2020.11.28 1958 UTC
Wind: Calm:0
Visibility: 10 mile(s):0
Sky conditions: clear
Temperature: 53.1 F (11.7 C)
Dew Point: 28.2 F (-2.1 C)
Relative Humidity: 38%
Pressure (altimeter): 30.18 in. Hg (1022 hPa)
ob: KBIF 281958Z AUTO 00000KT 10SM CLR 12/M02 A3018 RMK AO2 SLP204 T01171021
cycle: 20

Station Type Date Time Source
KBIF TAF 2020/11/26 06:04 UTC NOAA

TAF KBIF 260601Z 2606/2712 VRB06KT 9999 SKC QNH2996INS TX20/2621Z TNM01/2615Z LAST NO
AMDS AFT 2606 NEXT 3013

Example: see airport list